Time;durP1;ratioP1;P1;durP2;ratioP2;P2;SDS_P1;SDS_P2;PMS_P1;PMS_P2;Temp;Humidity;BMP_temperature;BMP_pressure;BME280_temperature;BME280_humidity;BME280_pressure;Samples;Min_cycle;Max_cycle;Signal;HPM_P1;HPM_P2
2023/06/09 00:00:40;;;;;;;12.15;8.60;;;17.50;99.90;;;;;;4995985;28;20263;-77
2023/06/09 00:03:07;;;;;;;13.23;9.13;;;17.50;99.90;;;;;;4995408;28;20212;-77
2023/06/09 00:05:34;;;;;;;10.95;9.18;;;17.40;99.90;;;;;;4993703;28;20643;-77
2023/06/09 00:08:00;;;;;;;9.20;8.20;;;17.30;99.90;;;;;;4994761;28;20206;-77
2023/06/09 00:10:26;;;;;;;9.82;8.38;;;17.40;99.90;;;;;;4995164;28;20176;-77
2023/06/09 00:12:54;;;;;;;11.93;9.35;;;17.30;99.90;;;;;;4994960;28;20712;-77
2023/06/09 00:15:20;;;;;;;10.85;8.98;;;17.20;99.90;;;;;;4993300;28;20320;-77
2023/06/09 00:17:47;;;;;;;10.10;9.05;;;17.10;99.90;;;;;;4994811;28;20179;-77
2023/06/09 00:20:14;;;;;;;11.35;9.93;;;17.00;99.90;;;;;;4994776;28;20264;-76
2023/06/09 00:22:44;;;;;;;11.02;9.63;;;16.90;99.90;;;;;;4994373;28;20199;-77
2023/06/09 00:25:15;;;;;;;12.80;8.98;;;16.80;99.90;;;;;;4994425;28;20184;-77
2023/06/09 00:27:43;;;;;;;12.15;9.18;;;16.90;99.90;;;;;;4993352;28;20657;-77
2023/06/09 00:30:10;;;;;;;11.38;8.43;;;16.80;99.90;;;;;;4994432;28;20161;-77
2023/06/09 00:32:36;;;;;;;10.80;8.60;;;16.80;99.90;;;;;;4994643;28;20692;-76
2023/06/09 00:35:05;;;;;;;11.48;10.07;;;16.80;99.90;;;;;;4994792;28;20266;-77
2023/06/09 00:37:31;;;;;;;17.10;11.25;;;16.70;99.90;;;;;;4994425;28;20184;-77
2023/06/09 00:39:57;;;;;;;14.60;10.45;;;16.70;99.90;;;;;;4993189;28;20665;-77
2023/06/09 00:42:24;;;;;;;11.43;9.90;;;16.70;99.90;;;;;;4994323;28;20223;-77
2023/06/09 00:44:49;;;;;;;11.82;9.98;;;16.60;99.90;;;;;;4992947;28;20241;-77
2023/06/09 00:47:16;;;;;;;13.30;9.35;;;16.50;99.90;;;;;;4993203;28;20208;-76
2023/06/09 00:49:43;;;;;;;10.25;8.98;;;16.50;99.90;;;;;;4993127;28;20191;-77
2023/06/09 00:52:09;;;;;;;10.20;9.20;;;16.40;99.90;;;;;;4993210;28;20255;-77
2023/06/09 00:54:36;;;;;;;10.63;9.13;;;16.30;99.90;;;;;;4994639;28;20203;-77
2023/06/09 00:57:04;;;;;;;10.77;9.68;;;16.20;99.90;;;;;;4993336;28;20540;-77
2023/06/09 00:59:30;;;;;;;13.98;9.85;;;16.20;99.90;;;;;;4994207;28;20177;-77
2023/06/09 01:01:56;;;;;;;13.15;10.27;;;16.20;99.90;;;;;;4992987;28;20208;-77
2023/06/09 01:04:21;;;;;;;10.98;9.52;;;16.10;99.90;;;;;;4994039;28;20266;-77
2023/06/09 01:07:28;;;;;;;12.80;9.93;;;16.10;99.90;;;;;;4993138;28;20267;-76
2023/06/09 01:10:15;;;;;;;12.60;9.90;;;16.20;99.90;;;;;;4974055;28;20204;-77
2023/06/09 01:13:07;;;;;;;13.32;10.23;;;16.20;99.90;;;;;;4992884;28;20176;-77
2023/06/09 01:15:38;;;;;;;13.65;10.05;;;16.30;99.90;;;;;;4993908;28;20156;-77
2023/06/09 01:18:08;;;;;;;10.90;9.80;;;16.30;99.90;;;;;;4993060;28;20267;-77
2023/06/09 01:21:06;;;;;;;14.75;10.50;;;16.10;99.90;;;;;;4994204;28;20173;-77
2023/06/09 01:24:09;;;;;;;11.32;10.13;;;16.10;99.90;;;;;;4994087;28;20196;-77
2023/06/09 01:26:38;;;;;;;14.15;10.43;;;16.00;99.90;;;;;;4994342;28;20224;-77
2023/06/09 01:29:05;;;;;;;13.80;10.00;;;16.00;99.90;;;;;;4992510;28;20169;-77
2023/06/09 01:31:32;;;;;;;11.95;9.93;;;15.90;99.90;;;;;;4993920;28;20180;-77
2023/06/09 01:34:01;;;;;;;13.63;10.00;;;15.80;99.90;;;;;;4992986;28;20211;-77
2023/06/09 01:36:28;;;;;;;11.25;10.05;;;15.80;99.90;;;;;;4992645;28;20188;-77
2023/06/09 01:38:54;;;;;;;15.02;10.68;;;15.80;99.90;;;;;;4997062;28;20177;-76
2023/06/09 01:41:20;;;;;;;11.95;10.40;;;15.80;99.90;;;;;;4997971;28;20203;-77
2023/06/09 01:43:46;;;;;;;13.80;10.95;;;15.80;99.90;;;;;;4996631;28;20581;-77
2023/06/09 01:46:12;;;;;;;13.30;9.57;;;15.90;99.90;;;;;;4997659;28;20169;-77
2023/06/09 01:48:38;;;;;;;13.93;10.05;;;15.90;99.90;;;;;;4996775;28;20642;-77
2023/06/09 01:51:10;;;;;;;12.73;10.68;;;15.90;99.90;;;;;;4996421;28;20173;-77
2023/06/09 01:53:39;;;;;;;11.50;9.88;;;15.90;99.90;;;;;;4997559;28;20204;-77
2023/06/09 01:56:16;;;;;;;12.40;9.95;;;15.90;99.90;;;;;;4996453;28;20212;-76
2023/06/09 01:58:45;;;;;;;14.18;10.90;;;15.90;99.90;;;;;;4996685;28;20259;-77
2023/06/09 02:01:15;;;;;;;13.30;10.93;;;15.80;99.90;;;;;;4997504;28;20712;-77
2023/06/09 02:03:42;;;;;;;13.75;11.15;;;15.70;99.90;;;;;;4996032;28;20636;-77
2023/06/09 02:06:11;;;;;;;12.27;10.80;;;15.60;99.90;;;;;;4997316;28;20172;-77
2023/06/09 02:08:37;;;;;;;14.00;11.82;;;15.60;99.90;;;;;;4996192;28;20177;-77
2023/06/09 02:11:03;;;;;;;12.93;11.50;;;15.50;99.90;;;;;;4997226;28;20181;-77
2023/06/09 02:13:29;;;;;;;13.00;11.60;;;15.40;99.90;;;;;;4995801;28;20199;-77
2023/06/09 02:15:55;;;;;;;15.00;11.23;;;15.40;99.90;;;;;;4996166;28;20263;-77
2023/06/09 02:18:22;;;;;;;13.80;11.63;;;15.40;99.90;;;;;;4995906;28;20548;-77
2023/06/09 02:20:49;;;;;;;13.73;11.65;;;15.40;99.90;;;;;;4995737;28;20215;-77
2023/06/09 02:23:17;;;;;;;12.60;11.10;;;15.40;99.90;;;;;;4996354;28;20208;-77
2023/06/09 02:25:43;;;;;;;14.15;11.90;;;15.40;99.90;;;;;;4996706;28;20177;-77
2023/06/09 02:28:09;;;;;;;13.60;12.02;;;15.50;99.90;;;;;;4997579;28;20181;-77
2023/06/09 02:30:35;;;;;;;12.93;11.20;;;15.40;99.90;;;;;;4997763;28;20172;-77
2023/06/09 02:33:01;;;;;;;18.45;12.18;;;15.40;99.90;;;;;;4997962;28;20255;-77
2023/06/09 02:35:28;;;;;;;12.75;10.63;;;15.40;99.90;;;;;;4996197;28;20220;-76
2023/06/09 02:37:54;;;;;;;15.02;11.65;;;15.40;99.90;;;;;;4995820;28;20184;-76
2023/06/09 02:40:21;;;;;;;14.90;12.13;;;15.30;99.90;;;;;;4997185;28;20190;-77
2023/06/09 02:42:47;;;;;;;14.18;11.38;;;15.30;99.90;;;;;;4996758;28;20304;-77
2023/06/09 02:45:13;;;;;;;17.52;12.18;;;15.30;99.90;;;;;;4995407;28;20219;-77
2023/06/09 02:47:39;;;;;;;14.25;12.75;;;15.30;99.90;;;;;;4995402;28;20185;-77
2023/06/09 02:50:05;;;;;;;15.35;12.45;;;15.20;99.90;;;;;;4995173;28;20176;-77
2023/06/09 02:52:32;;;;;;;14.85;12.68;;;15.20;99.90;;;;;;4995328;28;20184;-77
2023/06/09 02:54:58;;;;;;;17.80;11.35;;;15.10;99.90;;;;;;4996244;28;20551;-77
2023/06/09 02:57:26;;;;;;;16.55;11.73;;;15.10;99.90;;;;;;4996518;28;20666;-77
2023/06/09 02:59:52;;;;;;;12.73;11.00;;;15.10;99.90;;;;;;4996355;28;20629;-77
2023/06/09 03:02:18;;;;;;;12.82;10.80;;;15.10;99.90;;;;;;4995544;28;20208;-77
2023/06/09 03:04:43;;;;;;;13.70;11.00;;;15.10;99.90;;;;;;4994869;28;20219;-77
2023/06/09 03:07:13;;;;;;;12.07;10.63;;;15.10;99.90;;;;;;4994994;28;20180;-77
2023/06/09 03:09:42;;;;;;;15.70;11.75;;;15.00;99.90;;;;;;4997403;28;20204;-77
2023/06/09 03:12:08;;;;;;;11.98;10.48;;;14.90;99.90;;;;;;4994799;28;20649;-77
2023/06/09 03:14:35;;;;;;;13.75;11.18;;;14.80;99.90;;;;;;4996140;28;20196;-77
2023/06/09 03:17:01;;;;;;;13.00;11.60;;;14.80;99.90;;;;;;4996497;28;20227;-78
2023/06/09 03:19:27;;;;;;;14.82;12.13;;;14.80;99.90;;;;;;4995703;28;20185;-79
2023/06/09 03:21:53;;;;;;;14.25;12.75;;;14.80;99.90;;;;;;4995154;28;20200;-79
2023/06/09 03:24:19;;;;;;;16.17;12.55;;;14.80;99.90;;;;;;4996545;28;20196;-79
2023/06/09 03:26:48;;;;;;;15.15;13.00;;;14.80;99.90;;;;;;4996985;28;20612;-79
2023/06/09 03:29:14;;;;;;;14.93;12.75;;;14.80;99.90;;;;;;4996409;28;20165;-79
2023/06/09 03:31:41;;;;;;;20.52;12.88;;;14.80;99.90;;;;;;4996520;28;20176;-78
2023/06/09 03:34:07;;;;;;;14.05;12.55;;;14.80;99.90;;;;;;4995545;28;20576;-78
2023/06/09 03:36:35;;;;;;;17.65;13.00;;;14.60;99.90;;;;;;4995883;28;20184;-79
2023/06/09 03:39:01;;;;;;;14.75;12.68;;;14.60;99.90;;;;;;4995793;28;20180;-79
2023/06/09 03:41:27;;;;;;;15.43;13.00;;;14.60;99.90;;;;;;4995759;28;20219;-78
2023/06/09 03:43:53;;;;;;;15.60;12.23;;;14.60;99.90;;;;;;4995608;28;20259;-78
2023/06/09 03:46:19;;;;;;;14.73;12.23;;;14.50;99.90;;;;;;4996202;28;20179;-78
2023/06/09 03:48:45;;;;;;;14.00;11.75;;;14.50;99.90;;;;;;4996861;28;20200;-78
2023/06/09 03:51:10;;;;;;;13.63;12.23;;;14.50;99.90;;;;;;4995770;28;20191;-78
2023/06/09 03:53:36;;;;;;;13.27;11.48;;;14.40;99.90;;;;;;4996674;28;20200;-79
2023/06/09 03:56:02;;;;;;;18.70;13.00;;;14.40;99.90;;;;;;4994955;28;20193;-78
2023/06/09 03:58:28;;;;;;;14.80;12.68;;;14.50;99.90;;;;;;4994903;28;20246;-78
2023/06/09 04:00:54;;;;;;;14.85;13.02;;;14.50;99.90;;;;;;4994374;28;20184;-78
2023/06/09 04:03:22;;;;;;;15.82;13.40;;;14.50;99.90;;;;;;4994877;28;20219;-79
2023/06/09 04:05:49;;;;;;;14.60;13.00;;;14.50;99.90;;;;;;4996326;28;20598;-78
2023/06/09 04:08:15;;;;;;;17.10;12.95;;;14.50;99.90;;;;;;4994722;28;20643;-79
2023/06/09 04:10:41;;;;;;;17.50;14.20;;;14.50;99.90;;;;;;4996032;28;20183;-79
2023/06/09 04:13:08;;;;;;;15.93;13.70;;;14.60;99.90;;;;;;4994825;28;20197;-78
2023/06/09 04:15:35;;;;;;;18.60;13.25;;;14.70;99.90;;;;;;4995930;28;20203;-78
2023/06/09 04:18:01;;;;;;;16.35;14.07;;;14.70;99.90;;;;;;4994590;28;20184;-79
2023/06/09 04:20:27;;;;;;;16.80;13.55;;;14.80;99.90;;;;;;4994646;28;20218;-79
2023/06/09 04:22:53;;;;;;;18.55;13.32;;;14.80;99.90;;;;;;4996015;28;20256;-78
2023/06/09 04:25:25;;;;;;;16.35;13.35;;;14.80;99.90;;;;;;4994559;28;20172;-79
2023/06/09 04:27:55;;;;;;;14.02;12.48;;;14.80;99.90;;;;;;4996118;28;20153;-77
2023/06/09 04:30:25;;;;;;;17.10;13.48;;;14.90;99.90;;;;;;4997520;28;20203;-78
2023/06/09 04:32:59;;;;;;;20.42;14.02;;;15.00;99.90;;;;;;4998222;28;20203;-76
2023/06/09 04:35:24;;;;;;;17.45;12.80;;;15.00;99.90;;;;;;4995727;28;20556;-76
2023/06/09 04:37:50;;;;;;;15.63;13.75;;;15.10;99.90;;;;;;4994340;28;20180;-78
2023/06/09 04:40:21;;;;;;;15.57;12.88;;;15.10;99.90;;;;;;4995813;28;20223;-80
2023/06/09 04:42:58;;;;;;;15.57;13.40;;;15.20;99.90;;;;;;4994525;28;20580;-79
2023/06/09 04:45:27;;;;;;;14.18;12.52;;;15.30;99.90;;;;;;4995977;28;20156;-78
2023/06/09 04:48:02;;;;;;;17.90;13.13;;;15.30;99.90;;;;;;4994497;28;20333;-79
2023/06/09 04:50:30;;;;;;;18.60;13.52;;;15.20;99.90;;;;;;4994404;28;20172;-79
2023/06/09 04:53:03;;;;;;;16.98;14.30;;;15.30;99.90;;;;;;4996290;28;20180;-79
2023/06/09 04:55:30;;;;;;;19.67;14.00;;;15.30;99.90;;;;;;4994518;28;20173;-79
2023/06/09 04:57:57;;;;;;;15.60;13.93;;;15.40;99.90;;;;;;4996246;28;20649;-79
2023/06/09 05:00:26;;;;;;;18.13;14.05;;;15.40;99.90;;;;;;4996114;28;20180;-78
2023/06/09 05:02:53;;;;;;;18.58;13.52;;;15.50;99.90;;;;;;4995404;28;20200;-79
2023/06/09 05:05:20;;;;;;;17.65;13.20;;;15.50;99.90;;;;;;4995154;28;20195;-79
2023/06/09 05:07:46;;;;;;;16.05;14.23;;;15.60;99.90;;;;;;4995985;28;20649;-79
2023/06/09 05:10:12;;;;;;;13.32;11.85;;;15.70;99.90;;;;;;4995290;28;20176;-79
2023/06/09 05:12:39;;;;;;;15.20;12.70;;;15.80;99.90;;;;;;4996663;28;20176;-79
2023/06/09 05:15:06;;;;;;;15.05;13.15;;;15.90;99.90;;;;;;4998835;28;20207;-78
2023/06/09 05:17:33;;;;;;;17.33;13.48;;;16.00;99.90;;;;;;4998392;28;20176;-78
2023/06/09 05:19:59;;;;;;;16.85;12.43;;;16.10;99.90;;;;;;4999594;28;20169;-79
2023/06/09 05:22:25;;;;;;;15.95;13.60;;;16.10;99.90;;;;;;4999688;28;20206;-79
2023/06/09 05:24:51;;;;;;;17.05;13.90;;;16.10;99.90;;;;;;4998547;28;20204;-79
2023/06/09 05:27:17;;;;;;;16.35;12.75;;;16.20;99.90;;;;;;4998021;28;20183;-78
2023/06/09 05:29:43;;;;;;;14.15;12.50;;;16.30;99.90;;;;;;4997884;28;20179;-79
2023/06/09 05:32:09;;;;;;;13.50;12.10;;;16.40;99.90;;;;;;4999470;28;20180;-78
2023/06/09 05:34:35;;;;;;;13.18;11.80;;;16.50;99.90;;;;;;4998603;28;20208;-78
2023/06/09 05:37:02;;;;;;;13.18;11.82;;;16.60;99.90;;;;;;4998398;28;20530;-78
2023/06/09 05:39:28;;;;;;;14.52;12.18;;;16.70;99.90;;;;;;4998324;28;20196;-79
2023/06/09 05:41:53;;;;;;;13.23;11.88;;;16.80;99.90;;;;;;4998318;28;20204;-79
2023/06/09 05:44:19;;;;;;;14.23;11.68;;;16.90;99.90;;;;;;4999555;28;20561;-79
2023/06/09 05:46:45;;;;;;;15.93;12.63;;;16.90;99.90;;;;;;5000994;28;20173;-78
2023/06/09 05:49:11;;;;;;;19.13;11.57;;;17.00;99.90;;;;;;5000490;28;20171;-79
2023/06/09 05:51:36;;;;;;;12.05;10.73;;;17.10;99.90;;;;;;5010379;22;20604;-82
2023/06/09 05:54:03;;;;;;;11.80;10.60;;;17.20;99.90;;;;;;4979895;28;20180;-80
2023/06/09 05:56:29;;;;;;;13.95;11.32;;;17.30;99.90;;;;;;4979565;28;20229;-80
2023/06/09 05:59:03;;;;;;;12.02;10.70;;;17.40;99.90;;;;;;4978922;28;20189;-80
2023/06/09 06:01:32;;;;;;;11.43;10.23;;;17.50;99.90;;;;;;4979701;28;20192;-80
2023/06/09 06:03:58;;;;;;;13.55;10.45;;;17.60;99.90;;;;;;4977846;28;20176;-80
2023/06/09 06:06:25;;;;;;;13.82;10.65;;;17.70;99.90;;;;;;4979260;28;20177;-79
2023/06/09 06:08:51;;;;;;;13.38;11.27;;;17.80;99.90;;;;;;4979303;28;20654;-80
2023/06/09 06:11:17;;;;;;;13.07;11.70;;;17.90;99.90;;;;;;4978774;28;20185;-80
2023/06/09 06:13:43;;;;;;;16.20;11.95;;;17.90;99.90;;;;;;4978802;28;20256;-80
2023/06/09 06:16:08;;;;;;;13.43;11.70;;;17.90;99.90;;;;;;4977444;28;20563;-80
2023/06/09 06:18:34;;;;;;;16.48;10.98;;;17.90;99.90;;;;;;4978735;28;20207;-80
2023/06/09 06:21:00;;;;;;;13.32;11.98;;;17.90;99.90;;;;;;4978998;28;20170;-81
2023/06/09 06:23:26;;;;;;;15.15;11.65;;;17.90;99.90;;;;;;4977183;28;20232;-80
2023/06/09 06:25:52;;;;;;;15.02;11.23;;;17.90;99.90;;;;;;4977412;28;20180;-80
2023/06/09 06:28:20;;;;;;;14.15;10.57;;;18.00;99.90;;;;;;4978793;28;20189;-80
2023/06/09 06:30:45;;;;;;;13.02;9.98;;;18.10;99.90;;;;;;4978729;28;20554;-80
2023/06/09 06:33:11;;;;;;;14.27;10.90;;;18.20;99.90;;;;;;4979153;28;20212;-80
2023/06/09 06:35:38;;;;;;;17.05;11.50;;;18.30;99.90;;;;;;4977911;28;20185;-82
2023/06/09 06:38:04;;;;;;;12.55;10.40;;;18.40;99.90;;;;;;4978764;28;20276;-83
2023/06/09 06:40:30;;;;;;;10.77;9.13;;;18.50;99.90;;;;;;4977769;28;20212;-82
2023/06/09 06:42:55;;;;;;;13.23;9.77;;;18.70;99.90;;;;;;4978813;28;20216;-84
2023/06/09 06:45:22;;;;;;;11.45;10.25;;;18.80;99.90;;;;;;4979148;28;20180;-84
2023/06/09 06:47:49;;;;;;;10.82;9.65;;;18.80;99.90;;;;;;4977902;28;20579;-85
2023/06/09 06:50:15;;;;;;;11.32;9.70;;;19.00;99.90;;;;;;4977207;28;20181;-83
2023/06/09 06:52:41;;;;;;;13.90;9.73;;;19.10;99.90;;;;;;4978339;28;20193;-83
2023/06/09 06:55:08;;;;;;;13.77;9.77;;;19.20;99.90;;;;;;4976633;28;20188;-83
2023/06/09 06:57:38;;;;;;;13.73;9.52;;;19.30;99.90;;;;;;4977287;28;20260;-83
2023/06/09 07:00:12;;;;;;;12.95;9.45;;;19.40;99.90;;;;;;4978219;28;20638;-86
2023/06/09 07:02:38;;;;;;;11.73;8.77;;;19.50;99.90;;;;;;4981201;28;20225;-86
2023/06/09 07:05:06;;;;;;;13.57;9.88;;;19.60;99.90;;;;;;4977364;28;20237;-86
2023/06/09 07:07:32;;;;;;;11.20;9.70;;;19.70;99.90;;;;;;4981056;28;20173;-84
2023/06/09 07:09:58;;;;;;;14.35;8.43;;;19.80;99.90;;;;;;4978148;28;20182;-85
2023/06/09 07:12:24;;;;;;;10.82;8.68;;;19.90;99.90;;;;;;4977899;28;20165;-85
2023/06/09 07:14:50;;;;;;;11.00;8.88;;;20.00;99.90;;;;;;4977657;28;20208;-85
2023/06/09 07:17:16;;;;;;;12.77;9.80;;;20.10;99.90;;;;;;4977416;28;20709;-85
2023/06/09 07:19:42;;;;;;;11.35;9.07;;;20.20;99.90;;;;;;4976923;28;20197;-85
2023/06/09 07:22:08;;;;;;;9.82;8.32;;;20.30;99.90;;;;;;4976070;28;20256;-85
2023/06/09 07:24:34;;;;;;;11.65;9.20;;;20.40;99.90;;;;;;4976237;28;20185;-84
2023/06/09 07:27:00;;;;;;;10.25;8.32;;;20.50;99.90;;;;;;4976326;28;20181;-84
2023/06/09 07:29:25;;;;;;;10.30;8.50;;;20.60;99.90;;;;;;4976747;28;20219;-84
2023/06/09 07:31:52;;;;;;;9.95;8.80;;;20.70;99.90;;;;;;4976695;28;20560;-84
2023/06/09 07:34:18;;;;;;;9.65;7.95;;;20.80;99.90;;;;;;4975995;28;20667;-84
2023/06/09 07:36:50;;;;;;;11.48;8.75;;;20.90;99.90;;;;;;4975571;28;20661;-84
2023/06/09 07:39:17;;;;;;;8.77;7.88;;;21.00;99.90;;;;;;4977690;28;20197;-81
2023/06/09 07:41:42;;;;;;;10.05;7.82;;;21.10;99.90;;;;;;4976201;28;20205;-81
2023/06/09 07:44:09;;;;;;;8.98;8.05;;;21.20;99.90;;;;;;4975866;28;20183;-81
2023/06/09 07:46:35;;;;;;;11.00;8.18;;;21.30;99.90;;;;;;4977428;28;20158;-85
2023/06/09 07:49:01;;;;;;;10.55;7.60;;;21.30;99.90;;;;;;4977472;28;20289;-83
2023/06/09 07:51:27;;;;;;;9.90;7.82;;;21.40;99.90;;;;;;4975837;28;20193;-83
2023/06/09 07:53:54;;;;;;;11.25;8.82;;;21.50;99.90;;;;;;4975848;28;20186;-81
2023/06/09 07:56:20;;;;;;;9.18;8.10;;;21.60;99.90;;;;;;4976482;28;20196;-81
2023/06/09 07:58:46;;;;;;;9.95;7.20;;;21.70;99.90;;;;;;4976086;28;20200;-81
2023/06/09 08:01:12;;;;;;;10.48;7.93;;;21.80;99.90;;;;;;4977269;28;20249;-82
2023/06/09 08:03:38;;;;;;;10.75;8.15;;;21.90;96.80;;;;;;4976567;28;20177;-82
2023/06/09 08:06:04;;;;;;;12.85;7.80;;;21.90;97.90;;;;;;4977219;28;20200;-83
2023/06/09 08:08:31;;;;;;;12.60;7.82;;;22.00;99.90;;;;;;4977133;28;20193;-83
2023/06/09 08:10:58;;;;;;;10.73;7.88;;;22.10;99.00;;;;;;4975948;28;20169;-83
2023/06/09 08:13:24;;;;;;;8.82;7.25;;;22.20;99.90;;;;;;4975280;28;20181;-84
2023/06/09 08:15:50;;;;;;;10.00;7.82;;;22.20;1.00;;;;;;4975688;28;20279;-84
2023/06/09 08:18:16;;;;;;;9.95;7.82;;;22.30;1.00;;;;;;4975742;28;20693;-86
2023/06/09 08:20:42;;;;;;;10.48;7.18;;;22.40;14.60;;;;;;4976123;28;20184;-84
2023/06/09 08:23:08;;;;;;;9.70;7.20;;;22.50;1.00;;;;;;4976497;28;20283;-80
2023/06/09 08:25:37;;;;;;;8.27;7.18;;;22.60;1.00;;;;;;4977280;28;20658;-80
2023/06/09 08:28:03;;;;;;;9.15;7.38;;;22.70;63.60;;;;;;4976426;28;20248;-80
2023/06/09 08:30:28;;;;;;;9.48;7.70;;;22.90;58.00;;;;;;4976650;28;20157;-86
2023/06/09 08:32:54;;;;;;;9.65;7.43;;;23.00;1.00;;;;;;4976888;28;20597;-89
2023/06/09 08:35:22;;;;;;;14.57;8.23;;;23.20;1.00;;;;;;4976224;28;20185;-84
2023/06/09 08:37:48;;;;;;;8.70;6.68;;;23.40;1.00;;;;;;4976040;28;20224;-83
2023/06/09 08:40:14;;;;;;;11.75;7.38;;;23.50;1.00;;;;;;4975430;28;20197;-83
2023/06/09 08:42:40;;;;;;;8.30;6.70;;;23.70;99.90;;;;;;4981534;28;20204;-81
2023/06/09 08:45:07;;;;;;;8.70;6.60;;;23.80;99.90;;;;;;4981136;28;20548;-82
2023/06/09 08:47:33;;;;;;;7.30;5.93;;;24.00;99.90;;;;;;4979890;28;20189;-83
2023/06/09 08:50:02;;;;;;;8.75;6.43;;;24.10;99.90;;;;;;4979357;28;20527;-85
2023/06/09 08:52:30;;;;;;;7.15;5.63;;;24.30;99.90;;;;;;4977852;28;20188;-83
2023/06/09 08:55:00;;;;;;;6.22;5.40;;;24.50;99.90;;;;;;4977363;28;20185;-84
2023/06/09 08:57:26;;;;;;;10.05;4.97;;;24.60;99.90;;;;;;4976071;28;20180;-89
2023/06/09 08:59:53;;;;;;;7.65;5.18;;;24.80;1.00;;;;;;4978728;28;20181;-85
2023/06/09 09:02:28;;;;;;;10.48;5.00;;;24.90;1.00;;;;;;4976361;28;20724;-86
2023/06/09 09:04:54;;;;;;;7.13;5.25;;;25.10;1.00;;;;;;4975148;28;20208;-82
2023/06/09 09:07:20;;;;;;;6.85;5.07;;;25.30;99.90;;;;;;4977449;28;20169;-81
2023/06/09 09:09:46;;;;;;;7.38;5.18;;;25.50;99.90;;;;;;4975996;28;20292;-81
2023/06/09 09:12:13;;;;;;;6.38;4.90;;;25.70;1.00;;;;;;4975676;28;20224;-81
2023/06/09 09:14:41;;;;;;;5.95;4.70;;;25.80;1.00;;;;;;4977135;28;20200;-82
2023/06/09 09:17:12;;;;;;;5.60;5.03;;;26.00;99.90;;;;;;4975373;28;20661;-81
2023/06/09 09:19:45;;;;;;;6.22;4.80;;;26.20;1.00;;;;;;4976261;28;20200;-81
2023/06/09 09:22:11;;;;;;;7.45;5.03;;;26.30;99.90;;;;;;4976721;28;20687;-81
2023/06/09 09:24:41;;;;;;;6.68;4.50;;;26.40;99.90;;;;;;4976913;28;20192;-81
2023/06/09 09:27:21;;;;;;;9.25;5.22;;;26.50;99.90;;;;;;4977008;28;20517;-82
2023/06/09 09:29:47;;;;;;;6.68;5.32;;;26.60;99.90;;;;;;4976670;28;20228;-82
2023/06/09 09:32:14;;;;;;;6.95;4.85;;;26.60;60.70;;;;;;4975877;28;20185;-82
2023/06/09 09:34:45;;;;;;;7.22;4.97;;;26.60;1.00;;;;;;4975568;28;20189;-82
2023/06/09 09:37:17;;;;;;;6.57;5.10;;;26.70;1.00;;;;;;4976016;28;20258;-82
2023/06/09 09:39:54;;;;;;;7.82;4.85;;;26.60;1.00;;;;;;4980952;28;20565;-84
2023/06/09 09:42:21;;;;;;;7.97;4.95;;;26.80;1.00;;;;;;4980796;28;20243;-82
2023/06/09 09:44:51;;;;;;;7.90;5.25;;;26.80;1.00;;;;;;4975651;28;20174;-85
2023/06/09 09:47:18;;;;;;;7.03;5.45;;;26.90;1.00;;;;;;4976490;28;20650;-84
2023/06/09 09:49:58;;;;;;;6.15;5.05;;;27.10;1.00;;;;;;4975965;28;20678;-84
2023/06/09 09:52:29;;;;;;;8.40;5.13;;;27.00;1.00;;;;;;4975125;28;20205;-84
2023/06/09 09:54:59;;;;;;;6.32;5.13;;;27.10;1.00;;;;;;4976271;28;20268;-84
2023/06/09 09:57:29;;;;;;;7.13;4.47;;;27.00;1.00;;;;;;4976724;28;20252;-84
2023/06/09 09:59:56;;;;;;;6.53;5.18;;;27.10;1.00;;;;;;4980874;28;20169;-84
2023/06/09 10:02:24;;;;;;;8.05;5.70;;;27.20;1.00;;;;;;4980482;28;20204;-85
2023/06/09 10:04:51;;;;;;;8.27;5.50;;;27.30;1.00;;;;;;4978805;28;20184;-84
2023/06/09 10:07:23;;;;;;;8.43;5.85;;;27.30;1.00;;;;;;4979620;28;20157;-84
2023/06/09 10:09:51;;;;;;;10.82;6.57;;;27.50;1.00;;;;;;4979144;28;20189;-84
2023/06/09 10:12:19;;;;;;;8.60;6.30;;;27.60;1.00;;;;;;4979642;28;20256;-84
2023/06/09 10:14:48;;;;;;;8.43;6.82;;;27.60;1.00;;;;;;4979211;28;20166;-84
2023/06/09 10:17:22;;;;;;;10.35;6.57;;;27.50;99.90;;;;;;4981852;28;20236;-83
2023/06/09 10:19:52;;;;;;;9.10;6.97;;;27.20;89.10;;;;;;4982446;28;20654;-84
2023/06/09 10:22:21;;;;;;;8.80;6.60;;;26.90;1.00;;;;;;4979499;28;20288;-84
2023/06/09 10:24:48;;;;;;;9.52;6.80;;;27.00;1.00;;;;;;4979731;28;20180;-85
2023/06/09 10:27:14;;;;;;;11.02;6.68;;;27.10;60.60;;;;;;4978672;28;20670;-85
2023/06/09 10:29:40;;;;;;;8.27;7.10;;;27.20;1.00;;;;;;4980293;28;20564;-85
2023/06/09 10:32:12;;;;;;;8.50;6.90;;;27.00;1.00;;;;;;4979438;28;20181;-85
2023/06/09 10:34:45;;;;;;;8.95;6.78;;;26.90;99.90;;;;;;4978924;28;20260;-85
2023/06/09 10:37:11;;;;;;;9.73;6.70;;;27.00;99.90;;;;;;4982047;28;20171;-84
2023/06/09 10:40:14;;;;;;;7.63;6.25;;;27.00;1.00;;;;;;4979294;28;20205;-84
2023/06/09 10:43:07;;;;;;;8.88;6.95;;;27.20;99.90;;;;;;4979157;28;20224;-85
2023/06/09 10:46:12;;;;;;;8.13;6.50;;;27.40;1.00;;;;;;4978599;28;20567;-84
2023/06/09 10:48:46;;;;;;;9.38;6.47;;;27.40;99.90;;;;;;4959430;28;20213;-83
2023/06/09 10:51:27;;;;;;;9.85;6.70;;;27.40;1.00;;;;;;4972793;28;20715;-83
2023/06/09 10:54:07;;;;;;;8.07;6.93;;;27.30;1.00;;;;;;4978078;28;20196;-82
2023/06/09 10:56:45;;;;;;;7.70;6.65;;;27.30;2.10;;;;;;4978163;28;20173;-83
2023/06/09 10:59:26;;;;;;;9.27;6.68;;;27.40;6.50;;;;;;4978886;28;20282;-83
2023/06/09 11:04:41;;;;;;;9.45;6.28;;;27.90;99.90;;;;;;4980369;28;20161;-83
2023/06/09 11:07:26;;;;;;;7.05;5.93;;;27.80;1.00;;;;;;4978952;28;20177;-83
2023/06/09 11:09:53;;;;;;;7.55;6.07;;;27.70;1.00;;;;;;4978588;28;20232;-83
2023/06/09 11:12:27;;;;;;;7.75;6.00;;;27.70;99.90;;;;;;4981023;28;20204;-83
2023/06/09 11:14:58;;;;;;;7.70;6.38;;;27.80;1.00;;;;;;4981019;28;20208;-83
2023/06/09 11:17:42;;;;;;;7.95;5.97;;;27.90;99.90;;;;;;4979000;28;20252;-83
2023/06/09 11:20:10;;;;;;;9.85;5.80;;;27.90;1.00;;;;;;4979179;28;20212;-82
2023/06/09 11:22:42;;;;;;;9.07;6.45;;;28.00;1.00;;;;;;4977894;28;20205;-83
2023/06/09 11:25:28;;;;;;;9.35;5.85;;;27.90;1.00;;;;;;4979049;28;20174;-82
2023/06/09 11:27:57;;;;;;;9.10;6.20;;;27.90;1.00;;;;;;4979909;28;20232;-83
2023/06/09 11:30:27;;;;;;;9.23;6.75;;;27.90;1.00;;;;;;4980367;28;20176;-83
2023/06/09 11:33:01;;;;;;;8.55;6.07;;;27.90;68.20;;;;;;4978979;28;20564;-82
2023/06/09 11:38:00;;;;;;;7.55;5.82;;;27.90;1.00;;;;;;4982140;28;20201;-84
2023/06/09 11:40:27;;;;;;;7.20;6.18;;;28.00;1.00;;;;;;4978488;28;20180;-83
2023/06/09 11:42:54;;;;;;;8.18;5.95;;;27.80;1.00;;;;;;4977778;28;20205;-83
2023/06/09 11:45:23;;;;;;;6.88;5.53;;;27.80;1.00;;;;;;4977802;28;20181;-82
2023/06/09 11:47:49;;;;;;;8.40;6.15;;;27.90;1.00;;;;;;4977693;28;20538;-83
2023/06/09 11:50:16;;;;;;;7.80;5.30;;;28.00;99.90;;;;;;4979982;28;20213;-83
2023/06/09 11:52:43;;;;;;;6.57;5.30;;;28.20;99.90;;;;;;4979761;28;20196;-83
2023/06/09 11:55:12;;;;;;;9.10;5.93;;;28.30;99.90;;;;;;4979193;28;20213;-82
2023/06/09 11:57:38;;;;;;;7.53;6.07;;;28.30;99.90;;;;;;4982562;28;20177;-83
2023/06/09 12:00:17;;;;;;;7.03;5.20;;;28.30;99.90;;;;;;4983510;28;20181;-83
2023/06/09 12:02:47;;;;;;;9.55;5.78;;;28.60;99.90;;;;;;4982504;28;20185;-83
2023/06/09 12:05:13;;;;;;;10.18;5.57;;;28.90;88.80;;;;;;4980737;28;20245;-83
2023/06/09 12:07:44;;;;;;;7.47;6.00;;;29.00;1.00;;;;;;4982265;28;20170;-83
2023/06/09 12:10:10;;;;;;;8.32;5.90;;;29.20;1.00;;;;;;4981551;28;20237;-83
2023/06/09 12:12:47;;;;;;;7.03;5.50;;;29.30;1.00;;;;;;4981139;28;20216;-83
2023/06/09 12:15:13;;;;;;;8.02;5.78;;;29.30;1.00;;;;;;4980688;28;20172;-82
2023/06/09 12:17:40;;;;;;;9.77;6.15;;;29.10;1.00;;;;;;4980148;28;20216;-83
2023/06/09 12:20:45;;;;;;;7.25;5.55;;;29.10;1.00;;;;;;4979902;28;20546;-83
2023/06/09 12:23:12;;;;;;;7.90;6.20;;;29.30;1.00;;;;;;4957747;29;20269;-83
2023/06/09 12:25:49;;;;;;;10.02;6.28;;;29.50;1.00;;;;;;4972439;28;20241;-83
2023/06/09 12:28:29;;;;;;;8.88;5.70;;;29.50;1.00;;;;;;4979980;28;20197;-83
2023/06/09 12:31:18;;;;;;;9.93;5.88;;;29.70;99.90;;;;;;4979748;28;20165;-83
2023/06/09 12:33:48;;;;;;;9.30;5.57;;;29.50;99.90;;;;;;4979613;28;20169;-83
2023/06/09 12:36:14;;;;;;;8.73;5.75;;;29.10;99.90;;;;;;4978573;28;20184;-83
2023/06/09 12:38:43;;;;;;;6.82;6.13;;;28.70;99.90;;;;;;4977099;28;20201;-83
2023/06/09 12:41:10;;;;;;;9.70;5.97;;;28.40;99.90;;;;;;4978044;28;20173;-83
2023/06/09 12:43:55;;;;;;;8.98;5.78;;;28.30;99.90;;;;;;4977201;28;20173;-83
2023/06/09 12:46:33;;;;;;;11.30;5.70;;;28.00;99.90;;;;;;4975596;28;20579;-83
2023/06/09 12:49:09;;;;;;;9.30;6.03;;;28.10;1.00;;;;;;4975505;28;20335;-82
2023/06/09 12:51:43;;;;;;;7.80;6.30;;;28.70;1.00;;;;;;4974480;28;20673;-83